createdAt,value
2023-01-06T00:00:31.252Z,203.43
2023-01-06T00:10:36.454Z,208.00
2023-01-06T00:20:41.316Z,187.37
2023-01-06T00:30:45.077Z,188.73
2023-01-06T00:40:50.796Z,185.33
2023-01-06T00:51:01.996Z,190.30
2023-01-06T01:01:08.665Z,187.27
2023-01-06T01:11:35.048Z,195.80
2023-01-06T01:21:40.406Z,197.00
2023-01-06T01:31:44.359Z,187.23
2023-01-06T01:41:50.012Z,194.33
2023-01-06T01:51:56.660Z,190.87
2023-01-06T02:02:03.148Z,189.87
2023-01-06T02:12:07.484Z,194.07
2023-01-06T02:22:34.160Z,194.00
2023-01-06T02:32:55.081Z,190.60
2023-01-06T02:43:12.105Z,191.27
2023-01-06T02:53:24.009Z,190.67
2023-01-06T03:03:31.173Z,186.67
2023-01-06T03:13:41.434Z,190.33
2023-01-06T03:23:46.764Z,192.50
2023-01-06T03:34:01.084Z,186.37
2023-01-06T03:44:11.756Z,193.90
2023-01-06T03:54:27.594Z,191.97
2023-01-06T04:04:33.979Z,190.07
2023-01-06T04:14:39.091Z,190.40
2023-01-06T04:24:43.401Z,185.57
2023-01-06T04:34:48.660Z,189.30
2023-01-06T04:44:52.419Z,191.40
2023-01-06T04:54:57.250Z,189.03
2023-01-06T05:05:00.700Z,189.23
2023-01-06T05:15:06.746Z,192.30
2023-01-06T05:25:10.732Z,199.40
2023-01-06T05:35:15.634Z,203.37
2023-01-06T05:45:19.102Z,196.73
2023-01-06T05:55:23.937Z,190.37
2023-01-06T06:05:27.513Z,190.33
2023-01-06T06:15:32.343Z,191.30
2023-01-06T06:25:35.758Z,188.77
2023-01-06T06:35:40.579Z,194.27
2023-01-06T06:45:46.253Z,190.20
2023-01-06T06:55:51.154Z,192.37
2023-01-06T07:05:54.999Z,191.07
2023-01-06T07:15:59.908Z,190.07
2023-01-06T07:26:04.413Z,192.73
2023-01-06T07:36:10.573Z,188.13
2023-01-06T07:46:14.105Z,190.03
2023-01-06T07:56:19.075Z,192.00
2023-01-06T08:06:22.543Z,199.87
2023-01-06T08:16:27.376Z,190.77
2023-01-06T08:26:30.817Z,192.57
2023-01-06T08:36:35.693Z,193.93
2023-01-06T08:46:39.211Z,194.43
2023-01-06T08:56:44.794Z,192.53
2023-01-06T09:06:48.438Z,205.83
2023-01-06T09:16:53.298Z,208.83
2023-01-06T09:26:56.787Z,199.53
2023-01-06T09:37:01.702Z,212.00
2023-01-06T09:47:05.456Z,205.43
2023-01-06T09:57:17.084Z,205.77
2023-01-06T10:07:29.160Z,204.33
2023-01-06T10:17:54.740Z,204.10
2023-01-06T10:28:09.841Z,201.77
2023-01-06T10:38:15.486Z,204.50
2023-01-06T10:48:22.271Z,206.77
2023-01-06T10:58:35.800Z,203.47
2023-01-06T11:08:41.005Z,199.30
2023-01-06T11:18:52.292Z,201.70
2023-01-06T11:28:56.796Z,198.03
2023-01-06T11:39:05.118Z,198.57
2023-01-06T11:49:16.975Z,206.03
2023-01-06T11:59:25.636Z,202.63
2023-01-06T12:09:34.826Z,217.73
2023-01-06T12:19:46.337Z,224.40
2023-01-06T12:29:51.507Z,229.00
2023-01-06T12:40:02.068Z,229.07
2023-01-06T12:50:12.667Z,235.43
2023-01-06T13:00:44.338Z,231.67
2023-01-06T13:10:54.380Z,245.57
2023-01-06T13:21:05.892Z,234.60
2023-01-06T13:31:41.764Z,232.27
2023-01-06T13:41:50.370Z,226.47
2023-01-06T13:51:55.373Z,226.60
2023-01-06T14:02:00.494Z,233.33
2023-01-06T14:12:10.773Z,227.70
2023-01-06T14:22:19.407Z,229.23
2023-01-06T14:33:19.851Z,224.30
2023-01-06T14:44:31.729Z,216.93
2023-01-06T14:54:39.179Z,229.87
2023-01-06T15:04:45.606Z,212.33
2023-01-06T15:14:49.127Z,211.43
2023-01-06T15:24:54.387Z,216.93
2023-01-06T15:34:59.563Z,214.70
2023-01-06T15:45:07.767Z,210.23
2023-01-06T15:55:25.864Z,214.90
2023-01-06T16:05:41.186Z,214.67
2023-01-06T16:15:50.198Z,214.90
2023-01-06T16:26:06.092Z,212.00
2023-01-06T16:36:18.639Z,211.00
2023-01-06T16:46:27.377Z,213.90
2023-01-06T16:56:31.059Z,211.40
2023-01-06T17:06:35.926Z,211.07
2023-01-06T17:16:42.857Z,215.00
2023-01-06T17:26:53.290Z,221.23
2023-01-06T17:36:57.891Z,222.83
2023-01-06T17:47:05.602Z,225.87
2023-01-06T17:57:15.171Z,224.70
2023-01-06T18:07:20.001Z,219.33
2023-01-06T18:17:27.323Z,212.30
2023-01-06T18:27:36.912Z,209.27
2023-01-06T18:37:40.935Z,212.47
2023-01-06T18:47:51.618Z,231.47
2023-01-06T18:58:01.816Z,237.67
2023-01-06T19:08:16.159Z,234.37
2023-01-06T19:18:20.821Z,234.33
2023-01-06T19:28:28.120Z,224.27
2023-01-06T19:38:36.527Z,228.60
2023-01-06T19:48:43.128Z,239.93
2023-01-06T19:58:53.385Z,235.07
2023-01-06T20:08:58.481Z,235.13
2023-01-06T20:19:02.070Z,240.40
2023-01-06T20:29:08.060Z,245.10
2023-01-06T20:39:12.177Z,236.43
2023-01-06T20:49:20.464Z,267.57
2023-01-06T20:59:24.015Z,257.87
2023-01-06T21:09:29.423Z,281.97
2023-01-06T21:19:34.047Z,296.03
2023-01-06T21:29:39.400Z,318.63
2023-01-06T21:39:43.550Z,311.57
2023-01-06T21:49:48.401Z,315.77
2023-01-06T21:59:51.905Z,314.73
2023-01-06T22:09:58.641Z,348.73
2023-01-06T22:20:03.697Z,330.00
2023-01-06T22:30:10.843Z,306.87
2023-01-06T22:40:15.795Z,305.73
2023-01-06T22:50:56.739Z,312.83
2023-01-06T23:01:00.391Z,310.90
2023-01-06T23:11:08.852Z,276.03
2023-01-06T23:21:14.913Z,271.17
2023-01-06T23:31:21.864Z,273.97
2023-01-06T23:41:28.429Z,240.23
2023-01-06T23:51:33.944Z,230.80
